createdAt,value
2022-09-12T00:01:10.396Z,101355.41
2022-09-12T00:03:39.389Z,101358.97
2022-09-12T00:06:12.887Z,101353.59
2022-09-12T00:08:42.258Z,101364.41
2022-09-12T00:11:11.976Z,101356.47
2022-09-12T00:13:42.021Z,101358.28
2022-09-12T00:16:17.067Z,101347.69
2022-09-12T00:18:46.876Z,101327.38
2022-09-12T00:21:15.722Z,101351.31
2022-09-12T00:23:45.072Z,101352.28
2022-09-12T00:26:13.081Z,101354.75
2022-09-12T00:28:42.849Z,101348.09
2022-09-12T00:31:12.989Z,101356.56
2022-09-12T00:33:41.293Z,101346.72
2022-09-12T00:36:11.306Z,101351.97
2022-09-12T00:38:42.057Z,101344.88
2022-09-12T00:41:17.628Z,101348.31
2022-09-12T00:43:48.226Z,101343.06
2022-09-12T00:46:28.696Z,101347.44
2022-09-12T00:49:00.834Z,101342.09
2022-09-12T00:51:33.575Z,101341.13
2022-09-12T00:54:06.743Z,101338.47
2022-09-12T00:56:38.665Z,101341.13
2022-09-12T00:59:12.029Z,101343.69
2022-09-12T01:01:41.519Z,101252.13
2022-09-12T01:04:10.844Z,101338.06
2022-09-12T01:06:42.006Z,101333.44
2022-09-12T01:09:13.175Z,101334.38
2022-09-12T01:11:46.126Z,101336.13
2022-09-12T01:14:14.905Z,101322.91
2022-09-12T01:16:43.178Z,101328.94
2022-09-12T01:19:35.252Z,101330.63
2022-09-12T01:22:22.181Z,101327.19
2022-09-12T01:25:00.389Z,101324.66
2022-09-12T01:28:03.784Z,101325.50
2022-09-12T01:30:45.489Z,101327.31
2022-09-12T01:33:36.708Z,101317.47
2022-09-12T01:36:24.235Z,101318.53
2022-09-12T01:39:00.359Z,101319.38
2022-09-12T01:41:36.761Z,101324.72
2022-09-12T01:44:12.983Z,101325.72
2022-09-12T01:46:46.812Z,101317.66
2022-09-12T01:49:20.971Z,101316.69
2022-09-12T01:51:57.887Z,101314.00
2022-09-12T01:54:31.769Z,101320.34
2022-09-12T01:57:04.825Z,101316.88
2022-09-12T01:59:38.199Z,101322.16
2022-09-12T02:02:12.074Z,101319.56
2022-09-12T02:04:44.116Z,101325.06
2022-09-12T02:07:18.267Z,101321.31
2022-09-12T02:09:51.141Z,101319.56
2022-09-12T02:12:24.069Z,101323.13
2022-09-12T02:14:57.206Z,101328.47
2022-09-12T02:17:27.879Z,101323.13
2022-09-12T02:20:01.156Z,101330.22
2022-09-12T02:22:32.722Z,101323.13
2022-09-12T02:25:02.188Z,101318.06
2022-09-12T02:27:34.441Z,101324.84
2022-09-12T02:30:02.745Z,101325.78
2022-09-12T02:32:38.191Z,101329.88
2022-09-12T02:35:10.690Z,101326.34
2022-09-12T02:37:53.935Z,101320.03
2022-09-12T02:40:22.963Z,101324.53
2022-09-12T02:42:51.070Z,101327.19
2022-09-12T02:45:20.418Z,101327.13
2022-09-12T02:47:54.046Z,101325.28
2022-09-12T02:50:22.200Z,101320.88
2022-09-12T02:52:53.761Z,101320.03
2022-09-12T02:55:24.660Z,101315.63
2022-09-12T02:57:52.590Z,101314.88
2022-09-12T03:00:20.749Z,101325.38
2022-09-12T03:03:10.166Z,101324.44
2022-09-12T03:05:47.691Z,101326.25
2022-09-12T03:08:31.041Z,101321.84
2022-09-12T03:11:26.534Z,101314.78
2022-09-12T03:14:04.737Z,101318.28
2022-09-12T03:16:39.115Z,101316.59
2022-09-12T03:19:19.346Z,101314.78
2022-09-12T03:21:58.615Z,101322.81
2022-09-12T03:24:33.059Z,101320.16
2022-09-12T03:27:08.968Z,101322.03
2022-09-12T03:29:40.033Z,101316.59
2022-09-12T03:32:08.317Z,101285.03
2022-09-12T03:34:37.669Z,101320.16
2022-09-12T03:37:05.904Z,101318.53
2022-09-12T03:39:34.152Z,101321.22
2022-09-12T03:42:02.090Z,101318.63
2022-09-12T03:44:30.129Z,101313.38
2022-09-12T03:46:58.005Z,101314.13
2022-09-12T03:49:26.045Z,101319.56
2022-09-12T03:51:55.393Z,101312.41
2022-09-12T03:54:23.415Z,101317.75
2022-09-12T03:56:51.301Z,101288.44
2022-09-12T03:59:19.172Z,101319.38
2022-09-12T04:01:47.067Z,101313.06
2022-09-12T04:04:14.961Z,101306.75
2022-09-12T04:06:43.116Z,101314.66
2022-09-12T04:09:12.338Z,101312.94
2022-09-12T04:11:40.345Z,101318.22
2022-09-12T04:14:08.272Z,101312.84
2022-09-12T04:16:36.163Z,101318.22
2022-09-12T04:19:04.305Z,101318.22
2022-09-12T04:21:32.330Z,101311.97
2022-09-12T04:24:00.263Z,101323.78
2022-09-12T04:26:29.959Z,101320.97
2022-09-12T04:28:57.853Z,101317.66
2022-09-12T04:31:26.424Z,101321.22
2022-09-12T04:33:58.444Z,101319.38
2022-09-12T04:36:27.809Z,101320.34
2022-09-12T04:38:57.150Z,101284.38
2022-09-12T04:41:26.464Z,101323.13
2022-09-12T04:43:58.349Z,101315.06
2022-09-12T04:46:27.309Z,101326.00
2022-09-12T04:48:57.078Z,101323.44
2022-09-12T04:51:27.747Z,101323.66
2022-09-12T04:53:58.281Z,101312.28
2022-09-12T04:56:27.204Z,101320.88
2022-09-12T04:58:58.499Z,101312.06
2022-09-12T05:01:26.971Z,101319.16
2022-09-12T05:03:55.892Z,101304.88
2022-09-12T05:06:25.504Z,101317.53
2022-09-12T05:08:54.185Z,101297.47
2022-09-12T05:11:30.416Z,101308.63
2022-09-12T05:14:06.269Z,101313.03
2022-09-12T05:16:34.213Z,101318.28
2022-09-12T05:19:02.128Z,101316.47
2022-09-12T05:21:30.053Z,101311.09
2022-09-12T05:23:59.777Z,101310.16
2022-09-12T05:26:27.712Z,101310.97
2022-09-12T05:28:56.134Z,101318.06
2022-09-12T05:31:27.006Z,101292.19
2022-09-12T05:33:56.385Z,101315.19
2022-09-12T05:36:25.872Z,101325.78
2022-09-12T05:38:53.966Z,101312.41
2022-09-12T05:41:25.154Z,101310.50
2022-09-12T05:43:54.838Z,101315.72
2022-09-12T05:46:27.219Z,101312.94
2022-09-12T05:48:57.164Z,101313.91
2022-09-12T05:51:26.870Z,101318.28
2022-09-12T05:53:56.697Z,101318.41
2022-09-12T05:56:26.601Z,101321.84
2022-09-12T05:58:56.453Z,101320.97
2022-09-12T06:01:24.457Z,101323.66
2022-09-12T06:03:55.640Z,101328.94
2022-09-12T06:06:25.403Z,101322.81
2022-09-12T06:08:55.457Z,101318.28
2022-09-12T06:11:25.785Z,101317.34
2022-09-12T06:13:54.321Z,101330.53
2022-09-12T06:16:24.800Z,101315.31
2022-09-12T06:18:55.716Z,101326.88
2022-09-12T06:21:24.576Z,101317.88
2022-09-12T06:23:52.525Z,101330.34
2022-09-12T06:26:21.710Z,101320.44
2022-09-12T06:28:50.307Z,101337.19
2022-09-12T06:31:20.544Z,101323.69
2022-09-12T06:33:50.136Z,101326.13
2022-09-12T06:36:22.455Z,101328.63
2022-09-12T06:38:55.045Z,101321.31
2022-09-12T06:41:23.073Z,101325.59
2022-09-12T06:43:51.409Z,101324.56
2022-09-12T06:46:19.571Z,101318.34
2022-09-12T06:48:47.851Z,101313.50
2022-09-12T06:51:17.778Z,101316.81
2022-09-12T06:53:48.272Z,101315.72
2022-09-12T06:56:18.962Z,101299.97
2022-09-12T06:58:48.227Z,101314.59
2022-09-12T07:01:18.277Z,101310.84
2022-09-12T07:03:49.591Z,101314.25
2022-09-12T07:06:19.313Z,101313.31
2022-09-12T07:08:49.060Z,101314.91
2022-09-12T07:11:19.279Z,101298.28
2022-09-12T07:13:49.479Z,101319.00
2022-09-12T07:16:19.936Z,101312.56
2022-09-12T07:18:51.687Z,101314.78
2022-09-12T07:21:20.266Z,101311.00
2022-09-12T07:23:51.786Z,101315.22
2022-09-12T07:26:20.194Z,101279.69
2022-09-12T07:28:52.809Z,101316.47
2022-09-12T07:31:21.898Z,101313.69
2022-09-12T07:33:54.399Z,101308.19
2022-09-12T07:36:24.661Z,101306.91
2022-09-12T07:38:57.633Z,101298.22
2022-09-12T07:41:28.005Z,101291.19
2022-09-12T07:43:57.051Z,101311.59
2022-09-12T07:46:25.924Z,101291.19
2022-09-12T07:48:55.321Z,101312.03
2022-09-12T07:51:23.868Z,101316.19
2022-09-12T07:53:51.959Z,101309.72
2022-09-12T07:56:26.106Z,101308.53
2022-09-12T07:58:57.633Z,101308.41
2022-09-12T08:01:25.839Z,101309.97
2022-09-12T08:03:57.063Z,101316.06
2022-09-12T08:06:26.641Z,101311.56
2022-09-12T08:08:55.952Z,101310.34
2022-09-12T08:11:26.946Z,101316.59
2022-09-12T08:13:57.162Z,101311.84
2022-09-12T08:16:27.019Z,101315.28
2022-09-12T08:18:55.147Z,101290.16
2022-09-12T08:21:25.575Z,101318.47
2022-09-12T08:23:55.085Z,101309.31
2022-09-12T08:26:23.445Z,101306.63
2022-09-12T08:28:53.271Z,101305.69
2022-09-12T08:31:22.981Z,101315.94
2022-09-12T08:33:51.345Z,101299.81
2022-09-12T08:36:21.352Z,101313.91
2022-09-12T08:38:50.759Z,101311.09
2022-09-12T08:41:28.424Z,101309.16
2022-09-12T08:44:09.917Z,101291.97
2022-09-12T08:46:45.281Z,101307.09
2022-09-12T08:49:21.158Z,101314.06
2022-09-12T08:51:49.129Z,101307.72
2022-09-12T08:54:22.170Z,101296.75
2022-09-12T08:56:50.064Z,101287.91
2022-09-12T08:59:19.306Z,101296.38
2022-09-12T09:01:52.077Z,101246.56
2022-09-12T09:04:37.420Z,101293.22
2022-09-12T09:07:29.081Z,101301.16
2022-09-12T09:10:14.960Z,101296.66
2022-09-12T09:12:53.928Z,101289.31
2022-09-12T09:15:41.248Z,101281.97
2022-09-12T09:18:17.169Z,101278.47
2022-09-12T09:20:50.684Z,101280.88
2022-09-12T09:23:27.691Z,101288.00
2022-09-12T09:26:01.871Z,101275.28
2022-09-12T09:28:35.989Z,101272.59
2022-09-12T09:31:07.030Z,101267.22
2022-09-12T09:33:36.240Z,101268.06
2022-09-12T09:36:14.855Z,101266.97
2022-09-12T09:38:50.129Z,101266.84
2022-09-12T09:41:39.458Z,101263.19
2022-09-12T09:46:41.768Z,101267.50
2022-09-12T09:49:14.425Z,101267.28
2022-09-12T09:51:43.809Z,101266.41
2022-09-12T09:54:19.731Z,101268.25
2022-09-12T09:56:47.840Z,101267.16
2022-09-12T09:59:17.909Z,101256.75
2022-09-12T10:01:49.761Z,101259.34
2022-09-12T10:04:23.438Z,101259.69
2022-09-12T10:06:54.470Z,101259.56
2022-09-12T10:09:25.677Z,101253.22
2022-09-12T10:11:54.789Z,101259.47
2022-09-12T10:14:32.353Z,101255.78
2022-09-12T10:17:04.109Z,101245.03
2022-09-12T10:19:36.690Z,101246.88
2022-09-12T10:22:06.743Z,101253.22
2022-09-12T10:24:37.936Z,101242.59
2022-09-12T10:27:15.499Z,101230.34
2022-09-12T10:29:47.826Z,101231.06
2022-09-12T10:32:28.570Z,101238.19
2022-09-12T10:35:02.534Z,101244.53
2022-09-12T10:37:33.617Z,101241.09
2022-09-12T10:40:03.959Z,101240.38
2022-09-12T10:42:48.079Z,101242.22
2022-09-12T10:45:25.404Z,101238.78
2022-09-12T10:47:55.692Z,101234.47
2022-09-12T10:50:27.713Z,101238.13
2022-09-12T10:52:56.477Z,101237.41
2022-09-12T10:55:33.902Z,101239.22
2022-09-12T10:58:26.212Z,101235.66
2022-09-12T11:01:02.199Z,101244.72
2022-09-12T11:03:49.598Z,101218.44
2022-09-12T11:06:24.031Z,101230.66
2022-09-12T11:09:04.560Z,101230.56
2022-09-12T11:11:49.640Z,101224.31
2022-09-12T11:14:29.529Z,101227.97
2022-09-12T11:17:07.053Z,101230.78
2022-09-12T11:20:01.304Z,101223.59
2022-09-12T11:22:41.681Z,101220.91
2022-09-12T11:25:29.886Z,101227.09
2022-09-12T11:28:15.457Z,101228.97
2022-09-12T11:30:58.494Z,101221.84
2022-09-12T11:33:40.862Z,101199.94
2022-09-12T11:36:21.073Z,101219.31
2022-09-12T11:38:53.446Z,101217.44
2022-09-12T11:41:26.294Z,101215.63
2022-09-12T11:44:01.268Z,101222.81
2022-09-12T11:46:34.818Z,101216.72
2022-09-12T11:49:08.561Z,101206.09
2022-09-12T11:51:42.449Z,101211.34
2022-09-12T11:54:21.590Z,101215.75
2022-09-12T11:56:55.825Z,101205.97
2022-09-12T11:59:33.633Z,101209.38
2022-09-12T12:02:03.007Z,101201.53
2022-09-12T12:04:40.709Z,101212.06
2022-09-12T12:07:12.129Z,101204.13
2022-09-12T12:09:48.846Z,101204.00
2022-09-12T12:12:22.024Z,101204.00
2022-09-12T12:14:53.008Z,101206.59
2022-09-12T12:17:23.241Z,101202.19
2022-09-12T12:20:04.727Z,101198.53
2022-09-12T12:22:35.381Z,101197.41
2022-09-12T12:25:28.858Z,101204.50
2022-09-12T12:28:01.773Z,101203.75
2022-09-12T12:31:03.418Z,101197.41
2022-09-12T12:34:07.688Z,101203.75
2022-09-12T12:36:43.423Z,101194.72
2022-09-12T12:39:45.878Z,101190.31
2022-09-12T12:43:04.599Z,101191.41
2022-09-12T12:46:05.490Z,101188.72
2022-09-12T12:48:44.453Z,101184.34
2022-09-12T12:51:36.248Z,101185.19
2022-09-12T12:54:12.350Z,101179.78
2022-09-12T12:56:43.504Z,101179.78
2022-09-12T12:59:18.918Z,101181.38
2022-09-12T13:01:55.153Z,101179.69
2022-09-12T13:04:26.142Z,101170.75
2022-09-12T13:07:07.198Z,101143.38
2022-09-12T13:09:40.938Z,101167.22
2022-09-12T13:12:11.694Z,101165.25
2022-09-12T13:14:51.912Z,101179.47
2022-09-12T13:17:34.575Z,101176.78
2022-09-12T13:20:30.067Z,101177.59
2022-09-12T13:22:58.853Z,101175.03
2022-09-12T13:25:30.516Z,101174.91
2022-09-12T13:28:19.021Z,101166.75
2022-09-12T13:30:55.891Z,101164.06
2022-09-12T13:33:32.825Z,101164.91
2022-09-12T13:36:25.896Z,101156.34
2022-09-12T13:39:06.465Z,101150.22
2022-09-12T13:41:45.238Z,101162.81
2022-09-12T13:44:17.668Z,101161.97
2022-09-12T13:46:46.228Z,101155.63
2022-09-12T13:49:22.432Z,101157.22
2022-09-12T13:52:00.872Z,101149.16
2022-09-12T13:54:28.861Z,101152.72
2022-09-12T13:56:56.966Z,101151.84
2022-09-12T13:59:25.707Z,101145.63
2022-09-12T14:01:53.661Z,101141.81
2022-09-12T14:04:43.218Z,101148.06
2022-09-12T14:07:14.961Z,101141.97
2022-09-12T14:09:45.946Z,101122.97
2022-09-12T14:12:25.256Z,101131.94
2022-09-12T14:14:54.485Z,101133.88
2022-09-12T14:17:29.822Z,101133.75
2022-09-12T14:20:03.796Z,101134.63
2022-09-12T14:22:34.196Z,101133.03
2022-09-12T14:25:02.813Z,101131.19
2022-09-12T14:27:37.738Z,101127.53
2022-09-12T14:30:09.117Z,101118.72
2022-09-12T14:32:37.482Z,101118.72
2022-09-12T14:35:08.740Z,101116.03
2022-09-12T14:37:36.613Z,101119.69
2022-09-12T14:40:05.636Z,101118.34
2022-09-12T14:42:34.237Z,101114.41
2022-09-12T14:45:06.069Z,101116.22
2022-09-12T14:47:39.381Z,101114.53
2022-09-12T14:50:17.829Z,101121.63
2022-09-12T14:52:45.835Z,101111.13
2022-09-12T14:55:32.613Z,101109.16
2022-09-12T14:58:17.656Z,101102.94
2022-09-12T15:01:02.871Z,101107.34
2022-09-12T15:03:33.235Z,101104.50
2022-09-12T15:06:04.892Z,101101.69
2022-09-12T15:08:33.409Z,101094.63
2022-09-12T15:11:01.635Z,101068.97
2022-09-12T15:13:32.132Z,101095.38
2022-09-12T15:16:00.921Z,101093.63
2022-09-12T15:18:30.101Z,101098.78
2022-09-12T15:21:03.427Z,101099.53
2022-09-12T15:23:38.256Z,101093.31
2022-09-12T15:26:06.408Z,101089.88
2022-09-12T15:28:35.049Z,101096.09
2022-09-12T15:31:08.199Z,101085.22
2022-09-12T15:33:36.294Z,101085.22
2022-09-12T15:36:04.828Z,101084.22
2022-09-12T15:38:34.130Z,101084.13
2022-09-12T15:41:01.991Z,101077.88
2022-09-12T15:43:29.901Z,101082.41
2022-09-12T15:45:59.365Z,101090.47
2022-09-12T15:48:27.341Z,101086.94
2022-09-12T15:50:57.660Z,101074.72
2022-09-12T15:53:25.516Z,101081.81
2022-09-12T15:55:54.776Z,101079.97
2022-09-12T15:58:22.731Z,101086.34
2022-09-12T16:00:50.633Z,101077.41
2022-09-12T16:03:24.945Z,101077.41
2022-09-12T16:05:57.071Z,101079.00
2022-09-12T16:08:25.212Z,101076.75
2022-09-12T16:10:58.069Z,101077.28
2022-09-12T16:13:26.105Z,101081.81
2022-09-12T16:15:57.628Z,101084.38
2022-09-12T16:18:26.009Z,101076.44
2022-09-12T16:20:54.441Z,101077.28
2022-09-12T16:23:22.613Z,101078.13
2022-09-12T16:25:59.069Z,101067.50
2022-09-12T16:28:27.279Z,101076.53
2022-09-12T16:30:58.539Z,101072.75
2022-09-12T16:33:27.126Z,101057.81
2022-09-12T16:36:01.609Z,101065.88
2022-09-12T16:38:29.516Z,101060.50
2022-09-12T16:41:02.280Z,101058.66
2022-09-12T16:43:31.162Z,101059.66
2022-09-12T16:46:03.940Z,101060.50
2022-09-12T16:48:31.961Z,101055.38
2022-09-12T16:51:01.954Z,101053.53
2022-09-12T16:53:31.286Z,100994.41
2022-09-12T16:55:59.323Z,101046.81
2022-09-12T16:58:28.617Z,101047.69
2022-09-12T17:01:07.925Z,101048.66
2022-09-12T17:03:36.883Z,101047.06
2022-09-12T17:06:07.734Z,101038.53
2022-09-12T17:08:37.567Z,101050.84
2022-09-12T17:11:07.696Z,101045.59
2022-09-12T17:14:02.672Z,101046.69
2022-09-12T17:16:25.026Z,101046.97
2022-09-12T17:18:53.929Z,101041.09
2022-09-12T17:21:22.369Z,101042.78
2022-09-12T17:23:50.444Z,101040.34
2022-09-12T17:26:18.529Z,101044.28
2022-09-12T17:28:47.755Z,101043.53
2022-09-12T17:31:15.891Z,101037.69
2022-09-12T17:33:44.053Z,101035.22
2022-09-12T17:36:15.262Z,101034.22
2022-09-12T17:38:45.257Z,101036.19
2022-09-12T17:41:17.322Z,101032.78
2022-09-12T17:43:47.419Z,101033.97
2022-09-12T17:46:15.446Z,101034.13
2022-09-12T17:48:43.760Z,101037.91
2022-09-12T17:51:13.442Z,101035.34
2022-09-12T17:53:42.520Z,101029.22
2022-09-12T17:56:11.837Z,101033.00
2022-09-12T17:58:39.980Z,101029.59
2022-09-12T18:01:31.040Z,101030.56
2022-09-12T18:04:01.312Z,101015.31
2022-09-12T18:06:29.711Z,101021.91
2022-09-12T18:09:00.651Z,101014.44
2022-09-12T18:11:29.557Z,101020.66
2022-09-12T18:13:59.363Z,101026.03
2022-09-12T18:16:29.301Z,101005.41
2022-09-12T18:18:57.339Z,101009.06
2022-09-12T18:21:25.205Z,101009.06
2022-09-12T18:23:54.369Z,101008.22
2022-09-12T18:26:22.672Z,101010.06
2022-09-12T18:28:51.360Z,100996.72
2022-09-12T18:31:22.138Z,100992.44
2022-09-12T18:33:52.925Z,101000.41
2022-09-12T18:36:22.293Z,101000.41
2022-09-12T18:38:53.264Z,101000.66
2022-09-12T18:41:23.380Z,100941.38
2022-09-12T18:43:55.848Z,101001.50
2022-09-12T18:46:25.039Z,100993.53
2022-09-12T18:48:57.750Z,100991.84
2022-09-12T18:51:32.204Z,100990.28
2022-09-12T18:54:02.292Z,100990.28
2022-09-12T18:56:33.310Z,100988.31
2022-09-12T18:59:05.171Z,100990.28
2022-09-12T19:01:36.672Z,100988.66
2022-09-12T19:04:10.039Z,100987.78
2022-09-12T19:06:40.316Z,100924.63
2022-09-12T19:09:10.592Z,100989.97
2022-09-12T19:11:41.033Z,100987.53
2022-09-12T19:14:09.939Z,100989.50
2022-09-12T19:16:38.755Z,100955.03
2022-09-12T19:19:08.856Z,100980.69
2022-09-12T19:21:37.514Z,100972.13
2022-09-12T19:24:07.531Z,100977.50
2022-09-12T19:26:35.964Z,100974.09
2022-09-12T19:29:05.798Z,100974.22
2022-09-12T19:31:34.251Z,100971.63
2022-09-12T19:34:03.091Z,100970.81
2022-09-12T19:36:44.814Z,100962.84
2022-09-12T19:39:14.322Z,100962.22
2022-09-12T19:41:42.641Z,100955.16
2022-09-12T19:44:11.944Z,100956.97
2022-09-12T19:46:40.596Z,100951.47
2022-09-12T19:49:11.091Z,100951.38
2022-09-12T19:51:40.769Z,100953.09
2022-09-12T19:54:09.406Z,100951.13
2022-09-12T19:56:37.747Z,100946.63
2022-09-12T19:59:05.929Z,100946.63
2022-09-12T20:01:34.818Z,100943.09
2022-09-12T20:04:03.317Z,100949.19
2022-09-12T20:06:31.452Z,100946.63
2022-09-12T20:09:00.877Z,100941.00
2022-09-12T20:11:28.788Z,100940.03
2022-09-12T20:13:56.631Z,100941.63
2022-09-12T20:16:29.060Z,100939.66
2022-09-12T20:18:59.773Z,100931.50
2022-09-12T20:21:31.713Z,100923.44
2022-09-12T20:24:06.891Z,100922.34
2022-09-12T20:26:35.158Z,100924.31
2022-09-12T20:29:03.953Z,100919.66
2022-09-12T20:31:32.365Z,100916.25
2022-09-12T20:34:00.638Z,100912.81
2022-09-12T20:36:28.695Z,100910.25
2022-09-12T20:39:00.015Z,100897.31
2022-09-12T20:41:31.994Z,100907.44
2022-09-12T20:44:00.512Z,100911.22
2022-09-12T20:46:29.912Z,100901.47
2022-09-12T20:48:58.506Z,100906.09
2022-09-12T20:51:27.562Z,100877.41
2022-09-12T20:53:56.321Z,100891.81
2022-09-12T20:56:26.686Z,100891.94
2022-09-12T20:58:56.897Z,100887.56
2022-09-12T21:01:25.761Z,100887.78
2022-09-12T21:03:54.232Z,100875.22
2022-09-12T21:06:22.479Z,100850.91
2022-09-12T21:08:51.301Z,100880.84
2022-09-12T21:11:20.241Z,100870.19
2022-09-12T21:13:48.258Z,100872.03
2022-09-12T21:16:19.498Z,100866.66
2022-09-12T21:18:47.675Z,100865.94
2022-09-12T21:21:17.072Z,100859.69
2022-09-12T21:23:45.532Z,100858.97
2022-09-12T21:26:13.713Z,100856.28
2022-09-12T21:28:41.579Z,100842.88
2022-09-12T21:31:09.768Z,100845.69
2022-09-12T21:33:39.052Z,100779.25
2022-09-12T21:36:07.983Z,100847.38
2022-09-12T21:38:35.882Z,100841.03
2022-09-12T21:41:05.592Z,100837.41
2022-09-12T21:43:33.596Z,100840.91
2022-09-12T21:46:02.294Z,100838.22
2022-09-12T21:48:30.763Z,100835.44
2022-09-12T21:51:00.611Z,100829.06
2022-09-12T21:53:28.700Z,100827.38
2022-09-12T21:56:01.956Z,100833.47
2022-09-12T21:58:29.872Z,100822.72
2022-09-12T22:00:57.984Z,100827.97
2022-09-12T22:03:26.357Z,100827.88
2022-09-12T22:05:59.597Z,100824.06
2022-09-12T22:08:28.469Z,100818.72
2022-09-12T22:10:59.536Z,100821.16
2022-09-12T22:13:28.039Z,100782.59
2022-09-12T22:15:56.180Z,100805.91
2022-09-12T22:18:24.182Z,100796.00
2022-09-12T22:21:01.413Z,100800.25
2022-09-12T22:23:46.837Z,100800.38
2022-09-12T22:26:15.606Z,100797.84
2022-09-12T22:28:44.297Z,100796.00
2022-09-12T22:31:13.125Z,100791.63
2022-09-12T22:33:41.692Z,100790.75
2022-09-12T22:36:11.934Z,100789.91
2022-09-12T22:38:40.273Z,100791.00
2022-09-12T22:41:10.896Z,100773.53
2022-09-12T22:43:39.041Z,100775.03
2022-09-12T22:46:08.842Z,100776.00
2022-09-12T22:48:37.862Z,100783.19
2022-09-12T22:51:06.696Z,100776.97
2022-09-12T22:53:36.387Z,100776.97
2022-09-12T22:56:05.175Z,100772.59
2022-09-12T22:58:33.290Z,100771.72
2022-09-12T23:01:01.239Z,100769.91
2022-09-12T23:03:29.238Z,100756.72
2022-09-12T23:05:57.128Z,100750.38
2022-09-12T23:08:27.378Z,100742.31
2022-09-12T23:11:02.719Z,100742.31
2022-09-12T23:13:31.073Z,100745.13
2022-09-12T23:15:59.777Z,100743.28
2022-09-12T23:18:28.137Z,100741.56
2022-09-12T23:21:00.864Z,100737.94
2022-09-12T23:23:29.333Z,100730.34
2022-09-12T23:26:09.313Z,100727.31
2022-09-12T23:28:37.890Z,100721.34
2022-09-12T23:31:07.389Z,100721.34
2022-09-12T23:33:35.437Z,100710.75
2022-09-12T23:36:05.160Z,100707.91
2022-09-12T23:38:34.292Z,100711.56
2022-09-12T23:41:03.749Z,100703.66
2022-09-12T23:43:33.237Z,100706.19
2022-09-12T23:46:01.655Z,100700.09
2022-09-12T23:48:29.716Z,100695.59
2022-09-12T23:50:57.823Z,100700.09
2022-09-12T23:53:26.125Z,100696.56
2022-09-12T23:55:54.562Z,100692.91
2022-09-12T23:58:22.779Z,100686.69
